sensor_id;sensor_type;location;lat;lon;timestamp;P1;durP1;ratioP1;P2;durP2;ratioP2
3613;SDS011;1821;50.936;6.854;2022-11-12T00:00:15;9.52;;;6.57;;
3613;SDS011;1821;50.936;6.854;2022-11-12T00:00:57;9.63;;;6.72;;
3613;SDS011;1821;50.936;6.854;2022-11-12T00:01:39;10.82;;;6.60;;
3613;SDS011;1821;50.936;6.854;2022-11-12T00:02:21;10.27;;;6.97;;
3613;SDS011;1821;50.936;6.854;2022-11-12T00:03:02;9.15;;;6.25;;
3613;SDS011;1821;50.936;6.854;2022-11-12T00:03:44;11.65;;;6.70;;
3613;SDS011;1821;50.936;6.854;2022-11-12T00:04:26;10.90;;;7.00;;
3613;SDS011;1821;50.936;6.854;2022-11-12T00:05:08;10.55;;;7.30;;
3613;SDS011;1821;50.936;6.854;2022-11-12T00:05:50;10.93;;;6.80;;
3613;SDS011;1821;50.936;6.854;2022-11-12T00:06:33;9.30;;;6.68;;
3613;SDS011;1821;50.936;6.854;2022-11-12T00:07:15;10.65;;;7.10;;
3613;SDS011;1821;50.936;6.854;2022-11-12T00:07:56;9.38;;;6.80;;
3613;SDS011;1821;50.936;6.854;2022-11-12T00:08:38;10.50;;;7.10;;
3613;SDS011;1821;50.936;6.854;2022-11-12T00:09:20;9.43;;;6.72;;
3613;SDS011;1821;50.936;6.854;2022-11-12T00:10:02;8.52;;;6.70;;
3613;SDS011;1821;50.936;6.854;2022-11-12T00:10:44;8.40;;;6.38;;
3613;SDS011;1821;50.936;6.854;2022-11-12T00:11:26;8.50;;;6.20;;
3613;SDS011;1821;50.936;6.854;2022-11-12T00:12:08;8.00;;;6.90;;
3613;SDS011;1821;50.936;6.854;2022-11-12T00:12:49;8.20;;;6.82;;
3613;SDS011;1821;50.936;6.854;2022-11-12T00:13:31;8.93;;;6.95;;
3613;SDS011;1821;50.936;6.854;2022-11-12T00:14:13;8.80;;;6.72;;
3613;SDS011;1821;50.936;6.854;2022-11-12T00:14:55;10.15;;;7.28;;
3613;SDS011;1821;50.936;6.854;2022-11-12T00:15:36;8.82;;;6.90;;
3613;SDS011;1821;50.936;6.854;2022-11-12T00:16:18;8.73;;;6.78;;
3613;SDS011;1821;50.936;6.854;2022-11-12T00:17:00;8.45;;;6.25;;
3613;SDS011;1821;50.936;6.854;2022-11-12T00:17:42;10.32;;;6.80;;
3613;SDS011;1821;50.936;6.854;2022-11-12T00:18:24;8.32;;;6.80;;
3613;SDS011;1821;50.936;6.854;2022-11-12T00:19:06;8.27;;;6.75;;
3613;SDS011;1821;50.936;6.854;2022-11-12T00:19:48;8.27;;;6.78;;
3613;SDS011;1821;50.936;6.854;2022-11-12T00:20:30;9.15;;;7.00;;
3613;SDS011;1821;50.936;6.854;2022-11-12T00:21:11;9.73;;;7.28;;
3613;SDS011;1821;50.936;6.854;2022-11-12T00:21:53;8.32;;;6.88;;
3613;SDS011;1821;50.936;6.854;2022-11-12T00:22:35;8.80;;;6.45;;
3613;SDS011;1821;50.936;6.854;2022-11-12T00:23:16;10.27;;;7.07;;
3613;SDS011;1821;50.936;6.854;2022-11-12T00:23:58;10.25;;;7.20;;
3613;SDS011;1821;50.936;6.854;2022-11-12T00:24:40;9.82;;;6.70;;
3613;SDS011;1821;50.936;6.854;2022-11-12T00:25:22;7.82;;;6.68;;
3613;SDS011;1821;50.936;6.854;2022-11-12T00:26:03;8.45;;;7.20;;
3613;SDS011;1821;50.936;6.854;2022-11-12T00:26:45;8.73;;;7.05;;
3613;SDS011;1821;50.936;6.854;2022-11-12T00:27:27;8.88;;;7.00;;
3613;SDS011;1821;50.936;6.854;2022-11-12T00:28:09;8.40;;;6.80;;
3613;SDS011;1821;50.936;6.854;2022-11-12T00:28:51;7.80;;;6.30;;
3613;SDS011;1821;50.936;6.854;2022-11-12T00:29:33;9.90;;;6.55;;
3613;SDS011;1821;50.936;6.854;2022-11-12T00:30:14;8.25;;;6.70;;
3613;SDS011;1821;50.936;6.854;2022-11-12T00:30:56;8.32;;;6.57;;
3613;SDS011;1821;50.936;6.854;2022-11-12T00:31:38;10.30;;;6.28;;
3613;SDS011;1821;50.936;6.854;2022-11-12T00:32:20;10.50;;;6.68;;
3613;SDS011;1821;50.936;6.854;2022-11-12T00:33:02;8.95;;;6.85;;
3613;SDS011;1821;50.936;6.854;2022-11-12T00:33:44;10.95;;;6.68;;
3613;SDS011;1821;50.936;6.854;2022-11-12T00:34:26;8.65;;;6.53;;
3613;SDS011;1821;50.936;6.854;2022-11-12T00:35:08;9.02;;;6.85;;
3613;SDS011;1821;50.936;6.854;2022-11-12T00:35:57;9.02;;;6.70;;
3613;SDS011;1821;50.936;6.854;2022-11-12T00:36:40;7.70;;;6.90;;
3613;SDS011;1821;50.936;6.854;2022-11-12T00:37:21;8.55;;;7.25;;
3613;SDS011;1821;50.936;6.854;2022-11-12T00:38:04;9.45;;;6.72;;
3613;SDS011;1821;50.936;6.854;2022-11-12T00:38:46;9.27;;;6.90;;
3613;SDS011;1821;50.936;6.854;2022-11-12T00:39:28;9.93;;;6.97;;
3613;SDS011;1821;50.936;6.854;2022-11-12T00:40:10;10.88;;;7.38;;
3613;SDS011;1821;50.936;6.854;2022-11-12T00:40:51;8.93;;;7.00;;
3613;SDS011;1821;50.936;6.854;2022-11-12T00:41:33;9.07;;;6.65;;
3613;SDS011;1821;50.936;6.854;2022-11-12T00:42:15;9.43;;;7.22;;
3613;SDS011;1821;50.936;6.854;2022-11-12T00:42:56;9.05;;;6.47;;
3613;SDS011;1821;50.936;6.854;2022-11-12T00:43:38;9.93;;;6.95;;
3613;SDS011;1821;50.936;6.854;2022-11-12T00:44:20;9.20;;;7.13;;
3613;SDS011;1821;50.936;6.854;2022-11-12T00:45:02;8.07;;;6.97;;
3613;SDS011;1821;50.936;6.854;2022-11-12T00:45:44;11.80;;;7.88;;
3613;SDS011;1821;50.936;6.854;2022-11-12T00:46:26;12.55;;;7.85;;
3613;SDS011;1821;50.936;6.854;2022-11-12T00:47:07;8.95;;;7.32;;
3613;SDS011;1821;50.936;6.854;2022-11-12T00:47:52;9.50;;;7.70;;
3613;SDS011;1821;50.936;6.854;2022-11-12T00:48:35;9.95;;;7.10;;
3613;SDS011;1821;50.936;6.854;2022-11-12T00:49:17;10.55;;;7.95;;
3613;SDS011;1821;50.936;6.854;2022-11-12T00:49:58;11.05;;;7.88;;
3613;SDS011;1821;50.936;6.854;2022-11-12T00:50:40;9.35;;;7.45;;
3613;SDS011;1821;50.936;6.854;2022-11-12T00:51:22;11.45;;;8.05;;
3613;SDS011;1821;50.936;6.854;2022-11-12T00:52:03;10.35;;;7.68;;
3613;SDS011;1821;50.936;6.854;2022-11-12T00:52:45;9.48;;;7.80;;
3613;SDS011;1821;50.936;6.854;2022-11-12T00:53:27;9.82;;;7.88;;
3613;SDS011;1821;50.936;6.854;2022-11-12T00:54:08;10.18;;;7.63;;
3613;SDS011;1821;50.936;6.854;2022-11-12T00:54:50;8.35;;;7.45;;
3613;SDS011;1821;50.936;6.854;2022-11-12T00:55:32;9.75;;;7.60;;
3613;SDS011;1821;50.936;6.854;2022-11-12T00:56:13;9.80;;;7.60;;
3613;SDS011;1821;50.936;6.854;2022-11-12T00:56:55;11.43;;;7.80;;
3613;SDS011;1821;50.936;6.854;2022-11-12T00:57:37;9.50;;;8.02;;
3613;SDS011;1821;50.936;6.854;2022-11-12T00:58:19;9.77;;;7.45;;
3613;SDS011;1821;50.936;6.854;2022-11-12T00:59:00;8.15;;;7.10;;
3613;SDS011;1821;50.936;6.854;2022-11-12T00:59:42;10.68;;;8.00;;
3613;SDS011;1821;50.936;6.854;2022-11-12T01:00:24;9.10;;;6.80;;
3613;SDS011;1821;50.936;6.854;2022-11-12T01:01:06;9.52;;;7.28;;
3613;SDS011;1821;50.936;6.854;2022-11-12T01:01:50;9.32;;;7.85;;
3613;SDS011;1821;50.936;6.854;2022-11-12T01:02:32;11.25;;;7.90;;
3613;SDS011;1821;50.936;6.854;2022-11-12T01:03:22;10.52;;;7.00;;
3613;SDS011;1821;50.936;6.854;2022-11-12T01:04:07;9.80;;;7.75;;
3613;SDS011;1821;50.936;6.854;2022-11-12T01:04:49;11.07;;;8.27;;
3613;SDS011;1821;50.936;6.854;2022-11-12T01:05:31;10.30;;;7.70;;
3613;SDS011;1821;50.936;6.854;2022-11-12T01:06:15;10.20;;;7.68;;
3613;SDS011;1821;50.936;6.854;2022-11-12T01:06:58;11.75;;;7.57;;
3613;SDS011;1821;50.936;6.854;2022-11-12T01:07:40;10.57;;;7.82;;
3613;SDS011;1821;50.936;6.854;2022-11-12T01:08:22;9.52;;;7.35;;
3613;SDS011;1821;50.936;6.854;2022-11-12T01:09:05;10.02;;;7.72;;
3613;SDS011;1821;50.936;6.854;2022-11-12T01:09:47;10.85;;;8.10;;
3613;SDS011;1821;50.936;6.854;2022-11-12T01:10:29;9.65;;;7.57;;
3613;SDS011;1821;50.936;6.854;2022-11-12T01:11:12;9.70;;;7.53;;
3613;SDS011;1821;50.936;6.854;2022-11-12T01:11:55;10.52;;;7.97;;
3613;SDS011;1821;50.936;6.854;2022-11-12T01:12:37;11.27;;;7.78;;
3613;SDS011;1821;50.936;6.854;2022-11-12T01:13:19;11.13;;;7.38;;
3613;SDS011;1821;50.936;6.854;2022-11-12T01:14:02;10.25;;;7.70;;
3613;SDS011;1821;50.936;6.854;2022-11-12T01:14:45;9.10;;;7.97;;
3613;SDS011;1821;50.936;6.854;2022-11-12T01:15:27;9.55;;;7.93;;
3613;SDS011;1821;50.936;6.854;2022-11-12T01:16:10;9.90;;;7.57;;
3613;SDS011;1821;50.936;6.854;2022-11-12T01:16:53;9.52;;;7.25;;
3613;SDS011;1821;50.936;6.854;2022-11-12T01:17:35;9.77;;;7.88;;
3613;SDS011;1821;50.936;6.854;2022-11-12T01:18:17;10.10;;;7.65;;
3613;SDS011;1821;50.936;6.854;2022-11-12T01:18:59;9.15;;;7.38;;
3613;SDS011;1821;50.936;6.854;2022-11-12T01:19:42;10.23;;;7.78;;
3613;SDS011;1821;50.936;6.854;2022-11-12T01:20:24;10.60;;;8.20;;
3613;SDS011;1821;50.936;6.854;2022-11-12T01:21:06;11.45;;;8.40;;
3613;SDS011;1821;50.936;6.854;2022-11-12T01:21:48;10.43;;;8.80;;
3613;SDS011;1821;50.936;6.854;2022-11-12T01:22:29;8.82;;;7.78;;
3613;SDS011;1821;50.936;6.854;2022-11-12T01:23:11;9.40;;;8.40;;
3613;SDS011;1821;50.936;6.854;2022-11-12T01:23:53;9.48;;;8.00;;
3613;SDS011;1821;50.936;6.854;2022-11-12T01:24:36;12.43;;;8.98;;
3613;SDS011;1821;50.936;6.854;2022-11-12T01:25:18;11.23;;;8.73;;
3613;SDS011;1821;50.936;6.854;2022-11-12T01:26:06;8.75;;;7.60;;
3613;SDS011;1821;50.936;6.854;2022-11-12T01:26:51;11.35;;;7.80;;
3613;SDS011;1821;50.936;6.854;2022-11-12T01:27:33;10.88;;;8.13;;
3613;SDS011;1821;50.936;6.854;2022-11-12T01:28:15;11.52;;;9.00;;
3613;SDS011;1821;50.936;6.854;2022-11-12T01:28:57;11.07;;;8.60;;
3613;SDS011;1821;50.936;6.854;2022-11-12T01:29:38;11.10;;;8.48;;
3613;SDS011;1821;50.936;6.854;2022-11-12T01:30:21;11.88;;;8.35;;
3613;SDS011;1821;50.936;6.854;2022-11-12T01:32:00;10.07;;;8.00;;
3613;SDS011;1821;50.936;6.854;2022-11-12T01:32:42;11.55;;;8.30;;
3613;SDS011;1821;50.936;6.854;2022-11-12T01:33:23;12.13;;;8.40;;
3613;SDS011;1821;50.936;6.854;2022-11-12T01:34:06;10.27;;;8.05;;
3613;SDS011;1821;50.936;6.854;2022-11-12T01:34:49;9.75;;;8.25;;
3613;SDS011;1821;50.936;6.854;2022-11-12T01:35:31;10.15;;;8.30;;
3613;SDS011;1821;50.936;6.854;2022-11-12T01:36:13;10.65;;;7.80;;
3613;SDS011;1821;50.936;6.854;2022-11-12T01:36:57;11.02;;;8.23;;
3613;SDS011;1821;50.936;6.854;2022-11-12T01:37:38;10.20;;;7.95;;
3613;SDS011;1821;50.936;6.854;2022-11-12T01:38:20;10.73;;;8.18;;
3613;SDS011;1821;50.936;6.854;2022-11-12T01:39:02;10.85;;;8.18;;
3613;SDS011;1821;50.936;6.854;2022-11-12T01:39:48;10.13;;;7.95;;
3613;SDS011;1821;50.936;6.854;2022-11-12T01:40:31;9.95;;;7.55;;
3613;SDS011;1821;50.936;6.854;2022-11-12T01:41:14;12.93;;;8.57;;
3613;SDS011;1821;50.936;6.854;2022-11-12T01:42:01;10.38;;;8.18;;
3613;SDS011;1821;50.936;6.854;2022-11-12T01:42:42;9.50;;;7.30;;
3613;SDS011;1821;50.936;6.854;2022-11-12T01:43:33;10.75;;;7.97;;
3613;SDS011;1821;50.936;6.854;2022-11-12T01:44:19;10.20;;;8.30;;
3613;SDS011;1821;50.936;6.854;2022-11-12T01:45:10;9.93;;;7.90;;
3613;SDS011;1821;50.936;6.854;2022-11-12T01:45:56;11.48;;;8.13;;
3613;SDS011;1821;50.936;6.854;2022-11-12T01:46:56;11.18;;;8.38;;
3613;SDS011;1821;50.936;6.854;2022-11-12T01:47:47;10.68;;;7.35;;
3613;SDS011;1821;50.936;6.854;2022-11-12T01:48:34;10.60;;;7.70;;
3613;SDS011;1821;50.936;6.854;2022-11-12T01:49:24;9.93;;;7.73;;
3613;SDS011;1821;50.936;6.854;2022-11-12T01:51:11;10.30;;;8.30;;
3613;SDS011;1821;50.936;6.854;2022-11-12T01:51:55;9.55;;;7.82;;
3613;SDS011;1821;50.936;6.854;2022-11-12T01:52:44;11.25;;;7.85;;
3613;SDS011;1821;50.936;6.854;2022-11-12T01:53:30;13.43;;;8.95;;
3613;SDS011;1821;50.936;6.854;2022-11-12T01:54:19;10.15;;;7.70;;
3613;SDS011;1821;50.936;6.854;2022-11-12T01:55:10;12.55;;;8.00;;
3613;SDS011;1821;50.936;6.854;2022-11-12T01:55:54;15.60;;;8.30;;
3613;SDS011;1821;50.936;6.854;2022-11-12T01:56:36;9.55;;;8.32;;
3613;SDS011;1821;50.936;6.854;2022-11-12T01:57:24;9.05;;;8.00;;
3613;SDS011;1821;50.936;6.854;2022-11-12T01:58:15;10.13;;;8.00;;
3613;SDS011;1821;50.936;6.854;2022-11-12T01:59:21;10.13;;;8.27;;
3613;SDS011;1821;50.936;6.854;2022-11-12T02:00:06;11.55;;;8.20;;
3613;SDS011;1821;50.936;6.854;2022-11-12T02:00:49;10.50;;;7.50;;
3613;SDS011;1821;50.936;6.854;2022-11-12T02:01:31;11.15;;;8.10;;
3613;SDS011;1821;50.936;6.854;2022-11-12T02:02:15;11.63;;;8.40;;
3613;SDS011;1821;50.936;6.854;2022-11-12T02:02:57;10.45;;;7.93;;
3613;SDS011;1821;50.936;6.854;2022-11-12T02:03:41;11.35;;;7.70;;
3613;SDS011;1821;50.936;6.854;2022-11-12T02:04:22;10.95;;;8.45;;
3613;SDS011;1821;50.936;6.854;2022-11-12T02:05:07;10.95;;;7.85;;
3613;SDS011;1821;50.936;6.854;2022-11-12T02:05:52;8.68;;;7.78;;
3613;SDS011;1821;50.936;6.854;2022-11-12T02:06:38;9.63;;;8.30;;
3613;SDS011;1821;50.936;6.854;2022-11-12T02:07:21;9.48;;;8.35;;
3613;SDS011;1821;50.936;6.854;2022-11-12T02:08:04;12.82;;;9.13;;
3613;SDS011;1821;50.936;6.854;2022-11-12T02:08:47;11.35;;;8.65;;
3613;SDS011;1821;50.936;6.854;2022-11-12T02:09:30;9.48;;;7.90;;
3613;SDS011;1821;50.936;6.854;2022-11-12T02:10:13;9.60;;;7.50;;
3613;SDS011;1821;50.936;6.854;2022-11-12T02:10:55;10.55;;;8.40;;
3613;SDS011;1821;50.936;6.854;2022-11-12T02:11:36;10.45;;;8.10;;
3613;SDS011;1821;50.936;6.854;2022-11-12T02:12:18;11.20;;;8.40;;
3613;SDS011;1821;50.936;6.854;2022-11-12T02:13:19;11.13;;;8.15;;
3613;SDS011;1821;50.936;6.854;2022-11-12T02:14:19;10.02;;;7.93;;
3613;SDS011;1821;50.936;6.854;2022-11-12T02:15:02;10.20;;;8.23;;
3613;SDS011;1821;50.936;6.854;2022-11-12T02:15:44;9.85;;;7.97;;
3613;SDS011;1821;50.936;6.854;2022-11-12T02:16:27;10.35;;;7.70;;
3613;SDS011;1821;50.936;6.854;2022-11-12T02:17:13;11.02;;;8.07;;
3613;SDS011;1821;50.936;6.854;2022-11-12T02:17:54;12.95;;;8.88;;
3613;SDS011;1821;50.936;6.854;2022-11-12T02:18:36;13.50;;;8.55;;
3613;SDS011;1821;50.936;6.854;2022-11-12T02:19:18;10.27;;;8.50;;
3613;SDS011;1821;50.936;6.854;2022-11-12T02:20:00;13.00;;;8.55;;
3613;SDS011;1821;50.936;6.854;2022-11-12T02:20:42;11.98;;;8.02;;
3613;SDS011;1821;50.936;6.854;2022-11-12T02:21:24;10.48;;;7.95;;
3613;SDS011;1821;50.936;6.854;2022-11-12T02:22:06;9.60;;;7.80;;
3613;SDS011;1821;50.936;6.854;2022-11-12T02:22:48;9.80;;;8.00;;
3613;SDS011;1821;50.936;6.854;2022-11-12T02:23:30;9.40;;;7.60;;
3613;SDS011;1821;50.936;6.854;2022-11-12T02:24:54;13.00;;;8.38;;
3613;SDS011;1821;50.936;6.854;2022-11-12T02:25:35;11.30;;;8.73;;
3613;SDS011;1821;50.936;6.854;2022-11-12T02:26:17;11.18;;;8.95;;
3613;SDS011;1821;50.936;6.854;2022-11-12T02:26:59;12.00;;;8.73;;
3613;SDS011;1821;50.936;6.854;2022-11-12T02:27:41;9.70;;;8.35;;
3613;SDS011;1821;50.936;6.854;2022-11-12T02:28:24;9.98;;;8.40;;
3613;SDS011;1821;50.936;6.854;2022-11-12T02:29:06;9.63;;;8.00;;
3613;SDS011;1821;50.936;6.854;2022-11-12T02:29:48;11.45;;;8.80;;
3613;SDS011;1821;50.936;6.854;2022-11-12T02:30:33;11.20;;;8.68;;
3613;SDS011;1821;50.936;6.854;2022-11-12T02:31:19;10.40;;;7.85;;
3613;SDS011;1821;50.936;6.854;2022-11-12T02:32:01;10.27;;;8.02;;
3613;SDS011;1821;50.936;6.854;2022-11-12T02:32:43;10.80;;;8.27;;
3613;SDS011;1821;50.936;6.854;2022-11-12T02:33:24;11.13;;;8.25;;
3613;SDS011;1821;50.936;6.854;2022-11-12T02:34:06;12.00;;;8.70;;
3613;SDS011;1821;50.936;6.854;2022-11-12T02:34:48;14.00;;;9.50;;
3613;SDS011;1821;50.936;6.854;2022-11-12T02:35:30;10.40;;;8.60;;
3613;SDS011;1821;50.936;6.854;2022-11-12T02:36:12;9.73;;;8.57;;
3613;SDS011;1821;50.936;6.854;2022-11-12T02:36:53;9.85;;;8.18;;
3613;SDS011;1821;50.936;6.854;2022-11-12T02:37:35;9.60;;;8.05;;
3613;SDS011;1821;50.936;6.854;2022-11-12T02:38:17;11.00;;;8.30;;
3613;SDS011;1821;50.936;6.854;2022-11-12T02:38:58;10.98;;;8.43;;
3613;SDS011;1821;50.936;6.854;2022-11-12T02:39:40;12.30;;;9.10;;
3613;SDS011;1821;50.936;6.854;2022-11-12T02:40:22;10.82;;;8.60;;
3613;SDS011;1821;50.936;6.854;2022-11-12T02:41:04;10.90;;;8.35;;
3613;SDS011;1821;50.936;6.854;2022-11-12T02:41:45;11.73;;;7.90;;
3613;SDS011;1821;50.936;6.854;2022-11-12T02:42:27;10.00;;;8.05;;
3613;SDS011;1821;50.936;6.854;2022-11-12T02:43:09;12.30;;;8.55;;
3613;SDS011;1821;50.936;6.854;2022-11-12T02:43:50;11.90;;;8.40;;
3613;SDS011;1821;50.936;6.854;2022-11-12T02:44:32;9.52;;;8.02;;
3613;SDS011;1821;50.936;6.854;2022-11-12T02:45:14;10.13;;;8.65;;
3613;SDS011;1821;50.936;6.854;2022-11-12T02:45:56;12.38;;;8.07;;
3613;SDS011;1821;50.936;6.854;2022-11-12T02:46:38;11.45;;;8.00;;
3613;SDS011;1821;50.936;6.854;2022-11-12T02:47:20;10.30;;;7.78;;
3613;SDS011;1821;50.936;6.854;2022-11-12T02:48:01;13.13;;;8.10;;
3613;SDS011;1821;50.936;6.854;2022-11-12T02:48:43;10.75;;;8.30;;
3613;SDS011;1821;50.936;6.854;2022-11-12T02:49:25;11.27;;;9.10;;
3613;SDS011;1821;50.936;6.854;2022-11-12T02:50:07;10.65;;;8.23;;
3613;SDS011;1821;50.936;6.854;2022-11-12T02:50:49;10.02;;;7.90;;
3613;SDS011;1821;50.936;6.854;2022-11-12T02:51:30;9.40;;;8.10;;
3613;SDS011;1821;50.936;6.854;2022-11-12T02:52:12;9.00;;;8.10;;
3613;SDS011;1821;50.936;6.854;2022-11-12T02:52:54;10.70;;;8.60;;
3613;SDS011;1821;50.936;6.854;2022-11-12T02:53:35;10.95;;;8.18;;
3613;SDS011;1821;50.936;6.854;2022-11-12T02:54:17;9.95;;;7.80;;
3613;SDS011;1821;50.936;6.854;2022-11-12T02:54:59;10.48;;;8.40;;
3613;SDS011;1821;50.936;6.854;2022-11-12T02:55:41;11.18;;;8.65;;
3613;SDS011;1821;50.936;6.854;2022-11-12T02:56:24;10.18;;;8.25;;
3613;SDS011;1821;50.936;6.854;2022-11-12T02:57:05;9.70;;;8.13;;
3613;SDS011;1821;50.936;6.854;2022-11-12T02:57:47;12.13;;;9.02;;
3613;SDS011;1821;50.936;6.854;2022-11-12T02:58:29;10.80;;;8.48;;
3613;SDS011;1821;50.936;6.854;2022-11-12T02:59:10;11.48;;;8.82;;
3613;SDS011;1821;50.936;6.854;2022-11-12T02:59:52;11.15;;;8.43;;
3613;SDS011;1821;50.936;6.854;2022-11-12T03:00:34;11.35;;;8.55;;
3613;SDS011;1821;50.936;6.854;2022-11-12T03:01:16;9.35;;;8.02;;
3613;SDS011;1821;50.936;6.854;2022-11-12T03:01:57;10.90;;;8.10;;
3613;SDS011;1821;50.936;6.854;2022-11-12T03:02:39;11.07;;;8.10;;
3613;SDS011;1821;50.936;6.854;2022-11-12T03:03:38;9.48;;;8.00;;
3613;SDS011;1821;50.936;6.854;2022-11-12T03:04:20;9.45;;;8.10;;
3613;SDS011;1821;50.936;6.854;2022-11-12T03:05:02;11.35;;;7.80;;
3613;SDS011;1821;50.936;6.854;2022-11-12T03:05:44;10.55;;;7.28;;
3613;SDS011;1821;50.936;6.854;2022-11-12T03:06:26;10.80;;;7.55;;
3613;SDS011;1821;50.936;6.854;2022-11-12T03:07:08;9.82;;;8.10;;
3613;SDS011;1821;50.936;6.854;2022-11-12T03:07:50;11.27;;;7.95;;
3613;SDS011;1821;50.936;6.854;2022-11-12T03:08:36;10.80;;;8.30;;
3613;SDS011;1821;50.936;6.854;2022-11-12T03:09:18;9.15;;;7.85;;
3613;SDS011;1821;50.936;6.854;2022-11-12T03:10:00;10.35;;;7.70;;
3613;SDS011;1821;50.936;6.854;2022-11-12T03:10:41;11.27;;;8.38;;
3613;SDS011;1821;50.936;6.854;2022-11-12T03:11:23;10.85;;;8.45;;
3613;SDS011;1821;50.936;6.854;2022-11-12T03:12:05;10.75;;;8.48;;
3613;SDS011;1821;50.936;6.854;2022-11-12T03:12:46;10.65;;;8.68;;
3613;SDS011;1821;50.936;6.854;2022-11-12T03:13:28;10.18;;;7.90;;
3613;SDS011;1821;50.936;6.854;2022-11-12T03:14:10;9.52;;;7.63;;
3613;SDS011;1821;50.936;6.854;2022-11-12T03:14:51;9.07;;;8.05;;
3613;SDS011;1821;50.936;6.854;2022-11-12T03:15:33;11.15;;;8.40;;
3613;SDS011;1821;50.936;6.854;2022-11-12T03:16:15;11.88;;;8.52;;
3613;SDS011;1821;50.936;6.854;2022-11-12T03:16:56;11.13;;;8.00;;
3613;SDS011;1821;50.936;6.854;2022-11-12T03:17:38;10.60;;;7.90;;
3613;SDS011;1821;50.936;6.854;2022-11-12T03:18:20;12.68;;;8.50;;
3613;SDS011;1821;50.936;6.854;2022-11-12T03:19:01;11.73;;;8.30;;
3613;SDS011;1821;50.936;6.854;2022-11-12T03:19:43;9.70;;;7.65;;
3613;SDS011;1821;50.936;6.854;2022-11-12T03:20:25;10.35;;;8.13;;
3613;SDS011;1821;50.936;6.854;2022-11-12T03:21:07;10.15;;;7.60;;
3613;SDS011;1821;50.936;6.854;2022-11-12T03:21:49;9.80;;;7.43;;
3613;SDS011;1821;50.936;6.854;2022-11-12T03:22:30;9.20;;;7.70;;
3613;SDS011;1821;50.936;6.854;2022-11-12T03:23:12;9.35;;;7.70;;
3613;SDS011;1821;50.936;6.854;2022-11-12T03:23:54;10.13;;;8.20;;
3613;SDS011;1821;50.936;6.854;2022-11-12T03:24:35;9.50;;;7.72;;
3613;SDS011;1821;50.936;6.854;2022-11-12T03:25:17;10.68;;;8.65;;
3613;SDS011;1821;50.936;6.854;2022-11-12T03:26:00;9.63;;;8.52;;
3613;SDS011;1821;50.936;6.854;2022-11-12T03:26:43;10.57;;;8.20;;
3613;SDS011;1821;50.936;6.854;2022-11-12T03:27:25;10.52;;;8.13;;
3613;SDS011;1821;50.936;6.854;2022-11-12T03:28:08;11.30;;;7.93;;
3613;SDS011;1821;50.936;6.854;2022-11-12T03:28:51;9.15;;;7.60;;
3613;SDS011;1821;50.936;6.854;2022-11-12T03:29:33;9.32;;;8.32;;
3613;SDS011;1821;50.936;6.854;2022-11-12T03:30:15;10.65;;;7.93;;
3613;SDS011;1821;50.936;6.854;2022-11-12T03:30:58;8.75;;;7.50;;
3613;SDS011;1821;50.936;6.854;2022-11-12T03:31:40;9.00;;;8.00;;
3613;SDS011;1821;50.936;6.854;2022-11-12T03:32:22;9.00;;;7.88;;
3613;SDS011;1821;50.936;6.854;2022-11-12T03:33:04;9.93;;;8.18;;
3613;SDS011;1821;50.936;6.854;2022-11-12T03:33:47;10.68;;;8.30;;
3613;SDS011;1821;50.936;6.854;2022-11-12T03:34:29;10.23;;;8.00;;
3613;SDS011;1821;50.936;6.854;2022-11-12T03:35:10;10.52;;;8.38;;
3613;SDS011;1821;50.936;6.854;2022-11-12T03:35:52;11.23;;;9.13;;
3613;SDS011;1821;50.936;6.854;2022-11-12T03:36:34;10.50;;;7.93;;
3613;SDS011;1821;50.936;6.854;2022-11-12T03:37:16;12.30;;;8.30;;
3613;SDS011;1821;50.936;6.854;2022-11-12T03:37:57;10.68;;;8.30;;
3613;SDS011;1821;50.936;6.854;2022-11-12T03:38:40;9.93;;;8.00;;
3613;SDS011;1821;50.936;6.854;2022-11-12T03:39:21;9.52;;;8.23;;
3613;SDS011;1821;50.936;6.854;2022-11-12T03:40:03;9.45;;;7.60;;
3613;SDS011;1821;50.936;6.854;2022-11-12T03:40:45;8.77;;;7.35;;
3613;SDS011;1821;50.936;6.854;2022-11-12T03:41:27;7.82;;;7.00;;
3613;SDS011;1821;50.936;6.854;2022-11-12T03:42:08;9.20;;;7.10;;
3613;SDS011;1821;50.936;6.854;2022-11-12T03:42:50;9.88;;;7.63;;
3613;SDS011;1821;50.936;6.854;2022-11-12T03:43:32;9.40;;;7.80;;
3613;SDS011;1821;50.936;6.854;2022-11-12T03:44:14;9.45;;;7.90;;
3613;SDS011;1821;50.936;6.854;2022-11-12T03:44:56;10.90;;;7.70;;
3613;SDS011;1821;50.936;6.854;2022-11-12T03:45:37;9.30;;;8.05;;
3613;SDS011;1821;50.936;6.854;2022-11-12T03:46:19;8.65;;;7.75;;
3613;SDS011;1821;50.936;6.854;2022-11-12T03:47:01;10.00;;;7.72;;
3613;SDS011;1821;50.936;6.854;2022-11-12T03:47:43;9.98;;;7.50;;
3613;SDS011;1821;50.936;6.854;2022-11-12T03:48:25;8.80;;;7.72;;
3613;SDS011;1821;50.936;6.854;2022-11-12T03:49:08;9.23;;;7.75;;
3613;SDS011;1821;50.936;6.854;2022-11-12T03:49:49;9.55;;;7.88;;
3613;SDS011;1821;50.936;6.854;2022-11-12T03:50:31;10.38;;;7.85;;
3613;SDS011;1821;50.936;6.854;2022-11-12T03:51:13;10.90;;;8.18;;
3613;SDS011;1821;50.936;6.854;2022-11-12T03:51:56;10.05;;;7.80;;
3613;SDS011;1821;50.936;6.854;2022-11-12T03:52:38;10.70;;;7.93;;
3613;SDS011;1821;50.936;6.854;2022-11-12T03:53:19;11.35;;;8.40;;
3613;SDS011;1821;50.936;6.854;2022-11-12T03:54:01;9.57;;;8.05;;
3613;SDS011;1821;50.936;6.854;2022-11-12T03:54:43;10.13;;;8.38;;
3613;SDS011;1821;50.936;6.854;2022-11-12T03:55:25;9.35;;;8.05;;
3613;SDS011;1821;50.936;6.854;2022-11-12T03:56:08;8.95;;;7.80;;
3613;SDS011;1821;50.936;6.854;2022-11-12T03:56:50;9.02;;;7.70;;
3613;SDS011;1821;50.936;6.854;2022-11-12T03:57:32;8.70;;;7.80;;
3613;SDS011;1821;50.936;6.854;2022-11-12T03:58:13;11.10;;;8.45;;
3613;SDS011;1821;50.936;6.854;2022-11-12T03:58:55;9.93;;;7.55;;
3613;SDS011;1821;50.936;6.854;2022-11-12T03:59:36;8.80;;;7.25;;
3613;SDS011;1821;50.936;6.854;2022-11-12T04:00:19;10.10;;;8.30;;
3613;SDS011;1821;50.936;6.854;2022-11-12T04:01:01;10.25;;;7.70;;
3613;SDS011;1821;50.936;6.854;2022-11-12T04:01:43;9.35;;;7.72;;
3613;SDS011;1821;50.936;6.854;2022-11-12T04:02:25;9.32;;;7.45;;
3613;SDS011;1821;50.936;6.854;2022-11-12T04:03:10;12.43;;;8.00;;
3613;SDS011;1821;50.936;6.854;2022-11-12T04:03:51;11.98;;;8.60;;
3613;SDS011;1821;50.936;6.854;2022-11-12T04:04:33;9.93;;;7.70;;
3613;SDS011;1821;50.936;6.854;2022-11-12T04:05:33;9.93;;;7.70;;
3613;SDS011;1821;50.936;6.854;2022-11-12T04:06:33;8.48;;;6.82;;
3613;SDS011;1821;50.936;6.854;2022-11-12T04:07:34;9.48;;;7.28;;
3613;SDS011;1821;50.936;6.854;2022-11-12T04:08:36;9.13;;;7.90;;
3613;SDS011;1821;50.936;6.854;2022-11-12T04:09:18;9.55;;;8.43;;
3613;SDS011;1821;50.936;6.854;2022-11-12T04:09:59;8.90;;;8.00;;
3613;SDS011;1821;50.936;6.854;2022-11-12T04:10:41;10.05;;;8.00;;
3613;SDS011;1821;50.936;6.854;2022-11-12T04:11:23;10.20;;;8.20;;
3613;SDS011;1821;50.936;6.854;2022-11-12T04:12:05;10.07;;;8.95;;
3613;SDS011;1821;50.936;6.854;2022-11-12T04:13:06;11.00;;;8.00;;
3613;SDS011;1821;50.936;6.854;2022-11-12T04:14:07;10.50;;;7.40;;
3613;SDS011;1821;50.936;6.854;2022-11-12T04:14:48;11.55;;;7.85;;
3613;SDS011;1821;50.936;6.854;2022-11-12T04:15:30;11.40;;;8.65;;
3613;SDS011;1821;50.936;6.854;2022-11-12T04:16:19;10.00;;;7.95;;
3613;SDS011;1821;50.936;6.854;2022-11-12T04:17:20;8.40;;;7.50;;
3613;SDS011;1821;50.936;6.854;2022-11-12T04:18:37;11.10;;;9.18;;
3613;SDS011;1821;50.936;6.854;2022-11-12T04:19:37;10.45;;;8.10;;
3613;SDS011;1821;50.936;6.854;2022-11-12T04:20:38;9.02;;;8.00;;
3613;SDS011;1821;50.936;6.854;2022-11-12T04:21:39;8.95;;;7.85;;
3613;SDS011;1821;50.936;6.854;2022-11-12T04:22:32;10.60;;;7.90;;
3613;SDS011;1821;50.936;6.854;2022-11-12T04:23:13;11.45;;;8.10;;
3613;SDS011;1821;50.936;6.854;2022-11-12T04:23:55;10.38;;;8.00;;
3613;SDS011;1821;50.936;6.854;2022-11-12T04:24:38;10.43;;;8.20;;
3613;SDS011;1821;50.936;6.854;2022-11-12T04:25:39;10.30;;;8.95;;
3613;SDS011;1821;50.936;6.854;2022-11-12T04:26:39;10.73;;;8.15;;
3613;SDS011;1821;50.936;6.854;2022-11-12T04:27:28;9.75;;;7.70;;
3613;SDS011;1821;50.936;6.854;2022-11-12T04:28:11;10.02;;;8.27;;
3613;SDS011;1821;50.936;6.854;2022-11-12T04:28:53;10.70;;;8.45;;
3613;SDS011;1821;50.936;6.854;2022-11-12T04:29:53;9.80;;;8.00;;
3613;SDS011;1821;50.936;6.854;2022-11-12T04:30:54;9.98;;;7.90;;